sensor_id;sensor_type;location;lat;lon;timestamp;pressure;altitude;pressure_sealevel;temperature;humidity
33949;BME280;20229;49.856;19.030;2023-02-21T00:01:29;101117.48;;;9.99;69.62
33949;BME280;20229;49.856;19.030;2023-02-21T00:06:45;101106.81;;;9.94;69.59
33949;BME280;20229;49.856;19.030;2023-02-21T00:12:00;101100.90;;;9.85;70.25
33949;BME280;20229;49.856;19.030;2023-02-21T00:17:16;101094.71;;;9.81;70.65
33949;BME280;20229;49.856;19.030;2023-02-21T00:22:31;101085.56;;;9.82;70.27
33949;BME280;20229;49.856;19.030;2023-02-21T00:27:47;101070.10;;;9.83;70.35
33949;BME280;20229;49.856;19.030;2023-02-21T00:33:02;101067.30;;;9.84;70.33
33949;BME280;20229;49.856;19.030;2023-02-21T00:38:17;101071.78;;;9.85;70.17
33949;BME280;20229;49.856;19.030;2023-02-21T00:43:34;101073.57;;;9.86;70.23
33949;BME280;20229;49.856;19.030;2023-02-21T00:48:50;101058.09;;;9.87;70.18
33949;BME280;20229;49.856;19.030;2023-02-21T00:54:05;101066.19;;;9.88;70.55
33949;BME280;20229;49.856;19.030;2023-02-21T00:59:21;101059.77;;;9.89;70.31
33949;BME280;20229;49.856;19.030;2023-02-21T01:04:36;101050.65;;;9.90;70.81
33949;BME280;20229;49.856;19.030;2023-02-21T01:09:52;101070.52;;;9.92;70.86
33949;BME280;20229;49.856;19.030;2023-02-21T01:15:08;101058.75;;;9.92;71.12
33949;BME280;20229;49.856;19.030;2023-02-21T01:20:23;101066.87;;;9.93;70.57
33949;BME280;20229;49.856;19.030;2023-02-21T01:25:38;101064.13;;;9.93;71.37
33949;BME280;20229;49.856;19.030;2023-02-21T01:30:54;101045.05;;;9.93;71.22
33949;BME280;20229;49.856;19.030;2023-02-21T01:36:10;101046.86;;;9.93;71.64
33949;BME280;20229;49.856;19.030;2023-02-21T01:41:26;101052.41;;;9.91;71.61
33949;BME280;20229;49.856;19.030;2023-02-21T01:46:41;101054.26;;;9.91;71.63
33949;BME280;20229;49.856;19.030;2023-02-21T01:51:59;101036.05;;;9.91;71.75
33949;BME280;20229;49.856;19.030;2023-02-21T01:57:16;101030.88;;;9.85;72.27
33949;BME280;20229;49.856;19.030;2023-02-21T02:08:00;101021.96;;;9.81;72.75
33949;BME280;20229;49.856;19.030;2023-02-21T02:34:35;101013.05;;;9.78;73.08
33949;BME280;20229;49.856;19.030;2023-02-21T02:39:45;101003.25;;;9.74;73.39
33949;BME280;20229;49.856;19.030;2023-02-21T02:50:05;101025.16;;;9.72;73.32
33949;BME280;20229;49.856;19.030;2023-02-21T02:55:23;101011.44;;;9.74;73.32
33949;BME280;20229;49.856;19.030;2023-02-21T03:00:30;101013.20;;;9.75;73.72
33949;BME280;20229;49.856;19.030;2023-02-21T03:10:57;101005.98;;;9.74;73.91
33949;BME280;20229;49.856;19.030;2023-02-21T03:21:27;101009.59;;;9.74;73.75
33949;BME280;20229;49.856;19.030;2023-02-21T03:26:35;101015.04;;;9.74;74.06
33949;BME280;20229;49.856;19.030;2023-02-21T03:31:50;101018.73;;;9.73;74.10
33949;BME280;20229;49.856;19.030;2023-02-21T03:36:55;101014.98;;;9.76;74.01
33949;BME280;20229;49.856;19.030;2023-02-21T03:41:58;101007.74;;;9.75;73.87
33949;BME280;20229;49.856;19.030;2023-02-21T03:47:02;101009.54;;;9.76;74.01
33949;BME280;20229;49.856;19.030;2023-02-21T03:52:05;101015.04;;;9.74;74.33
33949;BME280;20229;49.856;19.030;2023-02-21T03:57:09;101031.34;;;9.76;73.89
33949;BME280;20229;49.856;19.030;2023-02-21T04:02:15;101030.61;;;9.72;74.30
33949;BME280;20229;49.856;19.030;2023-02-21T04:07:19;101023.31;;;9.73;74.49
33949;BME280;20229;49.856;19.030;2023-02-21T04:12:42;101026.32;;;9.67;75.32
33949;BME280;20229;49.856;19.030;2023-02-21T04:17:45;101015.41;;;9.67;75.47
33949;BME280;20229;49.856;19.030;2023-02-21T04:23:08;101023.73;;;9.64;75.89
33949;BME280;20229;49.856;19.030;2023-02-21T04:28:11;101014.62;;;9.65;75.56
33949;BME280;20229;49.856;19.030;2023-02-21T04:33:34;101014.67;;;9.63;76.34
33949;BME280;20229;49.856;19.030;2023-02-21T04:38:37;101019.25;;;9.63;77.35
33949;BME280;20229;49.856;19.030;2023-02-21T04:44:00;101021.46;;;9.54;78.56
33949;BME280;20229;49.856;19.030;2023-02-21T04:49:03;101019.67;;;9.53;79.01
33949;BME280;20229;49.856;19.030;2023-02-21T04:54:26;101008.12;;;9.48;79.35
33949;BME280;20229;49.856;19.030;2023-02-21T04:59:29;101016.30;;;9.48;78.81
33949;BME280;20229;49.856;19.030;2023-02-21T05:04:51;101017.45;;;9.43;78.81
33949;BME280;20229;49.856;19.030;2023-02-21T05:09:55;101008.34;;;9.44;79.07
33949;BME280;20229;49.856;19.030;2023-02-21T05:15:17;101018.50;;;9.40;79.90
33949;BME280;20229;49.856;19.030;2023-02-21T05:20:21;101013.05;;;9.40;79.87
33949;BME280;20229;49.856;19.030;2023-02-21T05:25:43;101017.81;;;9.35;80.23
33949;BME280;20229;49.856;19.030;2023-02-21T05:30:47;101017.76;;;9.37;80.36
33949;BME280;20229;49.856;19.030;2023-02-21T05:36:09;101018.91;;;9.31;80.61
33949;BME280;20229;49.856;19.030;2023-02-21T05:41:13;101024.37;;;9.31;80.23
33949;BME280;20229;49.856;19.030;2023-02-21T05:46:35;101022.73;;;9.27;80.70
33949;BME280;20229;49.856;19.030;2023-02-21T05:51:40;101022.73;;;9.27;80.87
33949;BME280;20229;49.856;19.030;2023-02-21T05:57:00;101027.50;;;9.22;81.35
33949;BME280;20229;49.856;19.030;2023-02-21T06:02:04;101038.34;;;9.23;81.45
33949;BME280;20229;49.856;19.030;2023-02-21T06:07:26;101044.80;;;9.21;81.53
33949;BME280;20229;49.856;19.030;2023-02-21T06:12:29;101047.40;;;9.24;81.85
33949;BME280;20229;49.856;19.030;2023-02-21T06:17:51;101048.49;;;9.20;81.79
33949;BME280;20229;49.856;19.030;2023-02-21T06:22:54;101063.66;;;9.25;81.78
33949;BME280;20229;49.856;19.030;2023-02-21T06:28:17;101065.36;;;9.28;82.29
33949;BME280;20229;49.856;19.030;2023-02-21T06:33:20;101071.35;;;9.36;81.74
33949;BME280;20229;49.856;19.030;2023-02-21T06:38:44;101073.80;;;9.42;82.11
33949;BME280;20229;49.856;19.030;2023-02-21T06:43:48;101067.93;;;9.51;81.55
33949;BME280;20229;49.856;19.030;2023-02-21T06:49:09;101084.20;;;9.53;81.96
33949;BME280;20229;49.856;19.030;2023-02-21T06:54:13;101092.15;;;9.57;81.49
33949;BME280;20229;49.856;19.030;2023-02-21T06:59:34;101092.32;;;9.54;81.99
33949;BME280;20229;49.856;19.030;2023-02-21T07:04:38;101092.98;;;9.60;81.38
33949;BME280;20229;49.856;19.030;2023-02-21T07:10:00;101099.40;;;9.58;81.89
33949;BME280;20229;49.856;19.030;2023-02-21T07:15:05;101102.73;;;9.65;82.10
33949;BME280;20229;49.856;19.030;2023-02-21T07:20:26;101110.03;;;9.65;82.36
33949;BME280;20229;49.856;19.030;2023-02-21T07:25:29;101104.36;;;9.69;82.40
33949;BME280;20229;49.856;19.030;2023-02-21T07:30:52;101123.57;;;9.66;82.95
33949;BME280;20229;49.856;19.030;2023-02-21T07:35:56;101110.78;;;9.68;84.43
33949;BME280;20229;49.856;19.030;2023-02-21T07:41:18;101125.28;;;9.69;84.57
33949;BME280;20229;49.856;19.030;2023-02-21T07:46:25;101124.93;;;9.76;85.14
33949;BME280;20229;49.856;19.030;2023-02-21T07:51:43;101134.11;;;9.74;85.41
33949;BME280;20229;49.856;19.030;2023-02-21T07:56:48;101134.95;;;9.76;85.61
33949;BME280;20229;49.856;19.030;2023-02-21T08:02:11;101135.96;;;9.73;86.18
33949;BME280;20229;49.856;19.030;2023-02-21T08:07:14;101142.02;;;9.80;86.59
33949;BME280;20229;49.856;19.030;2023-02-21T08:12:35;101162.65;;;9.86;87.99
33949;BME280;20229;49.856;19.030;2023-02-21T08:17:38;101150.16;;;10.00;87.72
33949;BME280;20229;49.856;19.030;2023-02-21T08:23:00;101159.14;;;10.02;88.54
33949;BME280;20229;49.856;19.030;2023-02-21T08:28:04;101144.85;;;9.97;87.94
33949;BME280;20229;49.856;19.030;2023-02-21T08:33:26;101153.40;;;10.09;89.10
33949;BME280;20229;49.856;19.030;2023-02-21T08:38:30;101146.66;;;10.36;90.33
33949;BME280;20229;49.856;19.030;2023-02-21T08:43:52;101129.64;;;11.21;86.08
33949;BME280;20229;49.856;19.030;2023-02-21T08:48:56;101142.17;;;11.25;84.12
33949;BME280;20229;49.856;19.030;2023-02-21T08:54:18;101146.50;;;11.12;85.58
33949;BME280;20229;49.856;19.030;2023-02-21T08:59:21;101138.24;;;11.13;84.71
33949;BME280;20229;49.856;19.030;2023-02-21T09:04:44;101147.35;;;10.95;84.63
33949;BME280;20229;49.856;19.030;2023-02-21T09:09:47;101144.96;;;11.23;84.48
33949;BME280;20229;49.856;19.030;2023-02-21T09:15:09;101147.27;;;11.66;82.88
33949;BME280;20229;49.856;19.030;2023-02-21T09:20:17;101143.43;;;11.87;82.09
33949;BME280;20229;49.856;19.030;2023-02-21T09:29:22;101161.84;;;12.33;80.07
33949;BME280;20229;49.856;19.030;2023-02-21T09:34:48;101173.98;;;12.44;79.24
33949;BME280;20229;49.856;19.030;2023-02-21T09:39:52;101170.63;;;12.55;78.50
33949;BME280;20229;49.856;19.030;2023-02-21T09:45:15;101172.38;;;12.56;77.88
33949;BME280;20229;49.856;19.030;2023-02-21T09:50:25;101164.24;;;12.39;77.89
33949;BME280;20229;49.856;19.030;2023-02-21T09:55:40;101177.38;;;12.16;78.39
33949;BME280;20229;49.856;19.030;2023-02-21T10:00:43;101172.50;;;12.06;77.63
33949;BME280;20229;49.856;19.030;2023-02-21T10:06:14;101179.87;;;11.88;78.25
33949;BME280;20229;49.856;19.030;2023-02-21T10:21:49;101189.43;;;11.62;78.84
33949;BME280;20229;49.856;19.030;2023-02-21T10:27:01;101185.96;;;11.76;79.71
33949;BME280;20229;49.856;19.030;2023-02-21T10:32:07;101182.59;;;12.21;76.97
33949;BME280;20229;49.856;19.030;2023-02-21T10:42:49;101170.27;;;12.30;75.94
33949;BME280;20229;49.856;19.030;2023-02-21T10:48:08;101196.93;;;12.26;76.87
33949;BME280;20229;49.856;19.030;2023-02-21T10:53:22;101173.44;;;12.54;75.76
33949;BME280;20229;49.856;19.030;2023-02-21T10:58:26;101174.93;;;12.43;76.06
33949;BME280;20229;49.856;19.030;2023-02-21T11:03:30;101192.23;;;12.28;76.24
33949;BME280;20229;49.856;19.030;2023-02-21T11:08:43;101193.98;;;12.13;76.69
33949;BME280;20229;49.856;19.030;2023-02-21T11:13:46;101200.06;;;12.18;77.57
33949;BME280;20229;49.856;19.030;2023-02-21T11:19:09;101187.30;;;12.35;76.28
33949;BME280;20229;49.856;19.030;2023-02-21T11:24:14;101177.42;;;12.48;75.96
33949;BME280;20229;49.856;19.030;2023-02-21T11:29:32;101189.43;;;12.46;74.93
33949;BME280;20229;49.856;19.030;2023-02-21T11:34:40;101190.65;;;12.40;74.62
33949;BME280;20229;49.856;19.030;2023-02-21T11:39:58;101200.17;;;12.33;75.98
33949;BME280;20229;49.856;19.030;2023-02-21T11:50:27;101192.34;;;12.42;76.22
33949;BME280;20229;49.856;19.030;2023-02-21T11:55:34;101184.59;;;12.66;74.58
33949;BME280;20229;49.856;19.030;2023-02-21T12:00:58;101199.79;;;12.72;73.88
33949;BME280;20229;49.856;19.030;2023-02-21T12:06:17;101189.45;;;12.77;74.49
33949;BME280;20229;49.856;19.030;2023-02-21T12:22:00;101200.57;;;13.52;71.42
33949;BME280;20229;49.856;19.030;2023-02-21T12:27:16;101197.78;;;13.37;70.95
33949;BME280;20229;49.856;19.030;2023-02-21T12:37:45;101187.30;;;12.98;68.55
33949;BME280;20229;49.856;19.030;2023-02-21T12:53:24;101211.95;;;12.51;76.68
33949;BME280;20229;49.856;19.030;2023-02-21T12:58:40;101209.30;;;12.49;76.87
33949;BME280;20229;49.856;19.030;2023-02-21T13:03:52;101211.95;;;12.51;77.08
33949;BME280;20229;49.856;19.030;2023-02-21T13:09:08;101211.27;;;12.63;77.37
33949;BME280;20229;49.856;19.030;2023-02-21T13:14:16;101201.90;;;12.67;77.13
33949;BME280;20229;49.856;19.030;2023-02-21T13:19:21;101210.46;;;12.61;76.36
33949;BME280;20229;49.856;19.030;2023-02-21T13:29:42;101231.31;;;12.48;77.91
33949;BME280;20229;49.856;19.030;2023-02-21T13:34:53;101217.26;;;12.54;76.74
33949;BME280;20229;49.856;19.030;2023-02-21T13:40:15;101207.11;;;12.56;76.52
33949;BME280;20229;49.856;19.030;2023-02-21T13:45:17;101205.05;;;12.43;75.92
33949;BME280;20229;49.856;19.030;2023-02-21T14:11:34;101237.60;;;12.16;79.86
33949;BME280;20229;49.856;19.030;2023-02-21T14:16:49;101243.22;;;12.47;76.93
33949;BME280;20229;49.856;19.030;2023-02-21T14:22:02;101237.73;;;12.47;74.94
33949;BME280;20229;49.856;19.030;2023-02-21T14:37:55;101260.87;;;11.90;78.57
33949;BME280;20229;49.856;19.030;2023-02-21T14:48:28;101247.54;;;11.84;79.28
33949;BME280;20229;49.856;19.030;2023-02-21T14:59:05;101260.20;;;11.51;79.01
33949;BME280;20229;49.856;19.030;2023-02-21T15:04:16;101271.45;;;11.44;78.73
33949;BME280;20229;49.856;19.030;2023-02-21T15:09:22;101252.30;;;11.44;78.45
33949;BME280;20229;49.856;19.030;2023-02-21T15:14:28;101274.66;;;11.35;76.75
33949;BME280;20229;49.856;19.030;2023-02-21T15:19:34;101270.05;;;11.18;77.05
33949;BME280;20229;49.856;19.030;2023-02-21T15:24:38;101273.95;;;11.13;76.62
33949;BME280;20229;49.856;19.030;2023-02-21T15:29:41;101270.34;;;11.12;77.49
33949;BME280;20229;49.856;19.030;2023-02-21T15:34:45;101275.66;;;11.15;77.47
33949;BME280;20229;49.856;19.030;2023-02-21T15:40:01;101256.57;;;10.96;77.61
33949;BME280;20229;49.856;19.030;2023-02-21T15:45:26;101270.16;;;10.79;77.80
33949;BME280;20229;49.856;19.030;2023-02-21T15:50:35;101284.76;;;10.59;78.46
33949;BME280;20229;49.856;19.030;2023-02-21T15:55:40;101279.29;;;10.40;79.11
33949;BME280;20229;49.856;19.030;2023-02-21T16:00:48;101289.09;;;10.24;79.69
33949;BME280;20229;49.856;19.030;2023-02-21T16:05:52;101298.52;;;10.17;79.97
33949;BME280;20229;49.856;19.030;2023-02-21T16:11:12;101307.27;;;10.04;80.26
33949;BME280;20229;49.856;19.030;2023-02-21T16:16:15;101300.23;;;9.99;80.19
33949;BME280;20229;49.856;19.030;2023-02-21T16:21:38;101325.38;;;9.85;80.85
33949;BME280;20229;49.856;19.030;2023-02-21T16:26:41;101319.94;;;9.85;81.19
33949;BME280;20229;49.856;19.030;2023-02-21T16:32:05;101321.23;;;9.76;81.43
33949;BME280;20229;49.856;19.030;2023-02-21T16:37:11;101327.56;;;9.77;81.72
33949;BME280;20229;49.856;19.030;2023-02-21T16:42:30;101323.08;;;9.76;81.93
33949;BME280;20229;49.856;19.030;2023-02-21T16:47:33;101332.01;;;9.79;81.99
33949;BME280;20229;49.856;19.030;2023-02-21T16:52:58;101343.42;;;9.67;81.81
33949;BME280;20229;49.856;19.030;2023-02-21T16:58:04;101344.47;;;9.65;82.21
33949;BME280;20229;49.856;19.030;2023-02-21T17:03:23;101339.52;;;9.52;82.89
33949;BME280;20229;49.856;19.030;2023-02-21T17:08:26;101339.89;;;9.43;83.40
33949;BME280;20229;49.856;19.030;2023-02-21T17:13:48;101347.62;;;9.32;83.55
33949;BME280;20229;49.856;19.030;2023-02-21T17:18:51;101354.10;;;9.29;83.80
33949;BME280;20229;49.856;19.030;2023-02-21T17:24:14;101366.05;;;9.25;84.50
33949;BME280;20229;49.856;19.030;2023-02-21T17:29:18;101363.85;;;9.35;84.51
33949;BME280;20229;49.856;19.030;2023-02-21T17:34:41;101374.06;;;9.30;84.78
33949;BME280;20229;49.856;19.030;2023-02-21T17:39:45;101366.25;;;9.21;84.88
33949;BME280;20229;49.856;19.030;2023-02-21T17:45:06;101377.92;;;9.01;85.03
33949;BME280;20229;49.856;19.030;2023-02-21T17:50:10;101374.59;;;8.94;85.64
33949;BME280;20229;49.856;19.030;2023-02-21T17:55:32;101385.82;;;8.85;85.64
33949;BME280;20229;49.856;19.030;2023-02-21T18:00:36;101382.91;;;8.90;85.88
33949;BME280;20229;49.856;19.030;2023-02-21T18:05:57;101381.56;;;8.78;85.84
33949;BME280;20229;49.856;19.030;2023-02-21T18:11:01;101392.74;;;8.70;86.13
33949;BME280;20229;49.856;19.030;2023-02-21T18:16:23;101391.42;;;8.57;86.75
33949;BME280;20229;49.856;19.030;2023-02-21T18:21:27;101392.41;;;8.54;87.26
33949;BME280;20229;49.856;19.030;2023-02-21T18:26:50;101400.69;;;8.51;88.26
33949;BME280;20229;49.856;19.030;2023-02-21T18:31:53;101400.54;;;8.56;88.46
33949;BME280;20229;49.856;19.030;2023-02-21T18:37:17;101407.85;;;8.54;88.72
33949;BME280;20229;49.856;19.030;2023-02-21T18:42:21;101404.43;;;8.49;88.43
33949;BME280;20229;49.856;19.030;2023-02-21T18:47:44;101413.16;;;8.32;89.07
33949;BME280;20229;49.856;19.030;2023-02-21T18:52:47;101398.95;;;8.24;89.69
33949;BME280;20229;49.856;19.030;2023-02-21T18:58:11;101411.10;;;8.13;89.62
33949;BME280;20229;49.856;19.030;2023-02-21T19:03:14;101404.88;;;8.10;89.10
33949;BME280;20229;49.856;19.030;2023-02-21T19:08:37;101415.25;;;7.99;89.53
33949;BME280;20229;49.856;19.030;2023-02-21T19:13:40;101422.56;;;7.97;89.65
33949;BME280;20229;49.856;19.030;2023-02-21T19:19:03;101425.55;;;7.89;90.19
33949;BME280;20229;49.856;19.030;2023-02-21T19:24:06;101418.33;;;7.88;90.44
33949;BME280;20229;49.856;19.030;2023-02-21T19:29:29;101421.09;;;7.86;91.01
33949;BME280;20229;49.856;19.030;2023-02-21T19:34:33;101424.49;;;7.93;91.83
33949;BME280;20229;49.856;19.030;2023-02-21T19:39:55;101434.12;;;8.03;91.66
33949;BME280;20229;49.856;19.030;2023-02-21T19:44:59;101438.23;;;8.15;90.82
33949;BME280;20229;49.856;19.030;2023-02-21T19:50:20;101442.85;;;8.13;91.07
33949;BME280;20229;49.856;19.030;2023-02-21T19:55:26;101444.79;;;8.09;90.99
33949;BME280;20229;49.856;19.030;2023-02-21T20:00:46;101452.20;;;8.04;90.61
33949;BME280;20229;49.856;19.030;2023-02-21T20:05:52;101457.84;;;7.98;89.91
33949;BME280;20229;49.856;19.030;2023-02-21T20:11:17;101471.59;;;7.94;90.32
33949;BME280;20229;49.856;19.030;2023-02-21T20:16:20;101468.41;;;8.07;90.84
33949;BME280;20229;49.856;19.030;2023-02-21T20:21:40;101469.36;;;8.06;90.22
33949;BME280;20229;49.856;19.030;2023-02-21T20:26:51;101472.77;;;8.13;90.21
33949;BME280;20229;49.856;19.030;2023-02-21T20:32:07;101476.99;;;8.22;89.79
33949;BME280;20229;49.856;19.030;2023-02-21T20:37:10;101482.95;;;8.33;89.85
33949;BME280;20229;49.856;19.030;2023-02-21T20:42:33;101492.90;;;8.34;89.26
33949;BME280;20229;49.856;19.030;2023-02-21T20:47:37;101498.34;;;8.34;88.81
33949;BME280;20229;49.856;19.030;2023-02-21T20:53:00;101504.09;;;8.25;88.28
33949;BME280;20229;49.856;19.030;2023-02-21T20:58:04;101507.10;;;8.15;87.14
33949;BME280;20229;49.856;19.030;2023-02-21T21:03:26;101515.69;;;8.03;87.44
33949;BME280;20229;49.856;19.030;2023-02-21T21:08:42;101527.52;;;8.02;86.98
33949;BME280;20229;49.856;19.030;2023-02-21T21:13:55;101535.87;;;7.96;87.00
33949;BME280;20229;49.856;19.030;2023-02-21T21:19:09;101540.35;;;7.97;86.86
33949;BME280;20229;49.856;19.030;2023-02-21T21:24:23;101537.95;;;7.88;86.27
33949;BME280;20229;49.856;19.030;2023-02-21T21:29:38;101539.05;;;7.81;85.92
33949;BME280;20229;49.856;19.030;2023-02-21T21:34:57;101551.17;;;7.71;86.16
33949;BME280;20229;49.856;19.030;2023-02-21T21:40:11;101556.71;;;7.68;86.30
33949;BME280;20229;49.856;19.030;2023-02-21T21:45:29;101553.29;;;7.61;86.69
33949;BME280;20229;49.856;19.030;2023-02-21T21:50:45;101564.18;;;7.59;86.18
33949;BME280;20229;49.856;19.030;2023-02-21T21:55:59;101566.25;;;7.51;86.39
33949;BME280;20229;49.856;19.030;2023-02-21T22:01:17;101570.95;;;7.46;86.67
33949;BME280;20229;49.856;19.030;2023-02-21T22:06:31;101567.54;;;7.38;86.65
33949;BME280;20229;49.856;19.030;2023-02-21T22:11:47;101578.62;;;7.32;86.22
33949;BME280;20229;49.856;19.030;2023-02-21T22:17:02;101576.23;;;7.19;86.58
33949;BME280;20229;49.856;19.030;2023-02-21T22:22:17;101570.14;;;7.11;86.79
33949;BME280;20229;49.856;19.030;2023-02-21T22:27:31;101577.50;;;7.06;86.71
33949;BME280;20229;49.856;19.030;2023-02-21T22:32:46;101576.77;;;7.01;86.71
33949;BME280;20229;49.856;19.030;2023-02-21T22:38:01;101583.23;;;6.95;86.69
33949;BME280;20229;49.856;19.030;2023-02-21T22:43:15;101593.28;;;6.92;86.04
33949;BME280;20229;49.856;19.030;2023-02-21T22:48:35;101594.30;;;6.88;86.12
33949;BME280;20229;49.856;19.030;2023-02-21T22:53:49;101589.01;;;6.83;85.95
33949;BME280;20229;49.856;19.030;2023-02-21T22:59:04;101593.78;;;6.74;86.25
33949;BME280;20229;49.856;19.030;2023-02-21T23:04:25;101596.77;;;6.64;86.06
33949;BME280;20229;49.856;19.030;2023-02-21T23:09:39;101599.77;;;6.52;86.53
33949;BME280;20229;49.856;19.030;2023-02-21T23:14:53;101604.60;;;6.39;86.59
33949;BME280;20229;49.856;19.030;2023-02-21T23:20:11;101608.64;;;6.23;86.66
33949;BME280;20229;49.856;19.030;2023-02-21T23:25:34;101616.23;;;6.07;87.10
33949;BME280;20229;49.856;19.030;2023-02-21T23:30:48;101617.45;;;5.94;87.67
33949;BME280;20229;49.856;19.030;2023-02-21T23:36:03;101617.62;;;5.85;87.88
33949;BME280;20229;49.856;19.030;2023-02-21T23:41:17;101617.90;;;5.72;88.05
33949;BME280;20229;49.856;19.030;2023-02-21T23:46:31;101617.23;;;5.61;88.11
33949;BME280;20229;49.856;19.030;2023-02-21T23:51:44;101623.63;;;5.57;88.56
33949;BME280;20229;49.856;19.030;2023-02-21T23:56:59;101613.69;;;5.58;88.34
